Time;durP1;ratioP1;P1;durP2;ratioP2;P2;SDS_P1;SDS_P2;PMS_P1;PMS_P2;Temp;Humidity;BMP_temperature;BMP_pressure;BME280_temperature;BME280_humidity;BME280_pressure;Samples;Min_cycle;Max_cycle;Signal;HPM_P1;HPM_P2
2021/06/21 00:03:54;;;;;;;1999.90;999.90;;;;;;;26.28;57.02;100105.47;15441538;28;20043;-52
2021/06/21 00:11:28;;;;;;;1999.90;999.90;;;;;;;26.06;57.91;100076.75;15424478;28;20039;-52
2021/06/21 00:19:00;;;;;;;1999.90;999.90;;;;;;;25.79;59.13;100067.75;15390654;28;20496;-52
2021/06/21 00:26:34;;;;;;;1999.90;999.90;;;;;;;25.97;59.08;100059.44;15397521;28;20043;-52
2021/06/21 00:34:06;;;;;;;1999.90;999.90;;;;;;;25.98;60.39;100063.13;15391803;28;20126;-54
2021/06/21 00:41:40;;;;;;;1999.90;999.90;;;;;;;26.30;61.40;100062.13;15384863;28;20460;-57
2021/06/21 00:49:12;;;;;;;1999.90;999.90;;;;;;;26.21;61.10;100065.66;15416452;28;20055;-52
2021/06/21 00:56:46;;;;;;;1999.90;999.90;;;;;;;26.18;61.65;100067.38;15428229;28;20043;-54
2021/06/21 01:04:18;;;;;;;1999.90;999.90;;;;;;;26.19;62.63;100065.31;15425947;28;20047;-56
2021/06/21 01:11:56;;;;;;;1999.90;999.90;;;;;;;26.24;62.96;100064.72;15399200;28;20042;-59
2021/06/21 01:20:13;;;;;;;1999.90;999.90;;;;;;;26.19;62.83;100051.81;15415864;28;20370;-58
2021/06/21 01:27:56;;;;;;;1999.90;999.90;;;;;;;25.89;63.86;100055.19;15413032;28;20066;-59
2021/06/21 01:35:33;;;;;;;1999.90;999.90;;;;;;;25.95;63.93;100047.69;15378939;28;20047;-59
2021/06/21 01:43:07;;;;;;;1999.90;999.90;;;;;;;25.69;64.14;100063.91;15380566;28;20045;-59
2021/06/21 01:50:43;;;;;;;1999.90;999.90;;;;;;;25.60;64.45;100073.13;15381658;28;20069;-58
2021/06/21 01:58:17;;;;;;;1999.90;999.90;;;;;;;25.61;64.46;100091.09;15411703;28;20525;-57
2021/06/21 02:05:52;;;;;;;1999.90;999.90;;;;;;;25.55;64.69;100104.31;15411165;28;20315;-58
2021/06/21 02:13:25;;;;;;;1999.90;999.90;;;;;;;25.72;65.28;100140.19;15418118;28;20043;-57
2021/06/21 02:20:59;;;;;;;1999.90;999.90;;;;;;;25.59;65.00;100156.44;15417101;28;20054;-58
2021/06/21 02:28:32;;;;;;;1999.90;999.90;;;;;;;25.28;67.57;100250.25;15433968;28;20117;-57
2021/06/21 02:36:07;;;;;;;1999.90;999.90;;;;;;;25.02;69.58;100335.69;15395336;28;20500;-61
2021/06/21 02:43:41;;;;;;;1999.90;999.90;;;;;;;24.96;69.40;100323.13;15402215;28;20043;-56
2021/06/21 02:51:18;;;;;;;;;;;;;;;24.51;69.69;100305.75;15391461;28;20126;-55
2021/06/21 02:58:57;;;;;;;1999.90;999.90;;;;;;;24.41;70.46;100275.41;15414097;28;19926;-55
2021/06/21 03:06:33;;;;;;;1999.90;999.90;;;;;;;24.60;69.35;100262.41;15423964;28;20046;-55
2021/06/21 03:14:06;;;;;;;1999.90;999.90;;;;;;;24.63;68.93;100233.78;15405442;28;20477;-57
2021/06/21 03:21:42;;;;;;;1999.90;999.90;;;;;;;24.39;69.92;100229.44;15422102;28;20043;-55
2021/06/21 03:29:17;;;;;;;1999.90;999.90;;;;;;;24.22;70.21;100182.91;15420246;28;20081;-57
2021/06/21 03:36:51;;;;;;;1999.90;999.90;;;;;;;24.05;71.30;100172.69;15426760;28;20069;-56
2021/06/21 03:44:24;;;;;;;1999.90;999.90;;;;;;;23.98;71.20;100124.41;15415217;28;20505;-58
2021/06/21 03:51:57;;;;;;;1999.90;999.90;;;;;;;23.66;72.43;100116.53;15411820;28;20096;-57
2021/06/21 03:59:30;;;;;;;1999.90;999.90;;;;;;;23.60;72.64;100085.69;15395803;28;20101;-54
2021/06/21 04:07:05;;;;;;;1999.90;999.90;;;;;;;23.45;73.46;100055.88;15423333;28;20048;-57
2021/06/21 04:14:37;;;;;;;1999.90;999.90;;;;;;;23.35;73.74;100041.84;15389764;28;20050;-55
2021/06/21 04:22:11;;;;;;;1999.90;999.90;;;;;;;23.40;73.92;100044.19;15412288;28;20452;-55
2021/06/21 04:29:43;;;;;;;1999.90;999.90;;;;;;;23.39;74.21;100036.88;15404056;28;20667;-55
2021/06/21 04:37:16;;;;;;;1999.90;999.90;;;;;;;23.53;73.42;100028.03;15417015;28;20047;-55
2021/06/21 04:44:49;;;;;;;1999.90;999.90;;;;;;;23.57;73.14;99998.28;15419166;28;20062;-56
2021/06/21 04:52:24;;;;;;;1999.90;999.90;;;;;;;23.61;72.41;99983.97;15426716;28;20126;-56
2021/06/21 04:59:57;;;;;;;1999.90;999.90;;;;;;;23.71;72.20;99971.53;15422584;28;20074;-58
2021/06/21 05:07:31;;;;;;;1999.90;999.90;;;;;;;23.99;71.26;99998.59;15394238;28;20474;-53
2021/06/21 05:15:03;;;;;;;1999.90;999.90;;;;;;;24.51;69.53;100025.50;15419002;28;20125;-54
2021/06/21 05:22:37;;;;;;;1999.90;999.90;;;;;;;25.11;68.13;100034.53;15426391;28;20035;-57
2021/06/21 05:30:10;;;;;;;1999.90;999.90;;;;;;;25.50;67.08;100059.97;15436256;28;20098;-56
2021/06/21 05:37:44;;;;;;;1999.90;999.90;;;;;;;25.44;66.44;100072.41;15421742;28;20054;-55
2021/06/21 05:45:17;;;;;;;1999.90;999.90;;;;;;;26.45;64.86;100106.97;15413514;28;20046;-63
2021/06/21 05:52:51;;;;;;;1999.90;999.90;;;;;;;26.20;64.82;100106.94;15428776;28;20047;-61
2021/06/21 06:00:24;;;;;;;1999.90;999.90;;;;;;;26.95;61.21;100096.78;15426323;28;20122;-64
2021/06/21 06:07:57;;;;;;;1999.90;999.90;;;;;;;27.44;61.02;100107.00;15430618;28;20574;-62
2021/06/21 06:15:29;;;;;;;1999.90;999.90;;;;;;;26.89;61.67;100112.16;15433798;28;20046;-64
2021/06/21 06:23:05;;;;;;;1999.90;999.90;;;;;;;27.55;60.66;100101.69;15443674;28;20484;-63
2021/06/21 06:30:38;;;;;;;1999.90;999.90;;;;;;;26.89;61.36;100129.31;15435955;28;20047;-63
2021/06/21 06:38:12;;;;;;;1999.90;999.90;;;;;;;27.71;60.68;100129.38;15434836;28;20047;-62
2021/06/21 06:45:44;;;;;;;1999.90;999.90;;;;;;;28.93;56.41;100120.56;15435018;28;20046;-61
2021/06/21 06:53:26;;;;;;;1999.90;999.90;;;;;;;28.94;56.22;100120.09;15433930;28;20051;-63
2021/06/21 07:00:58;;;;;;;1999.90;999.90;;;;;;;28.79;56.08;100121.13;15433183;28;20066;-62
2021/06/21 07:08:33;;;;;;;1999.90;999.90;;;;;;;28.76;57.15;100088.41;15382351;28;20428;-60
2021/06/21 07:16:06;;;;;;;1999.90;999.90;;;;;;;28.83;56.55;100128.31;15374076;28;20106;-61
2021/06/21 07:23:39;;;;;;;1999.90;999.90;;;;;;;28.42;56.18;100138.97;15407829;28;20046;-64
2021/06/21 07:31:15;;;;;;;1999.90;999.90;;;;;;;28.83;55.87;100139.81;15428301;28;20038;-63
2021/06/21 07:38:48;;;;;;;1999.90;999.90;;;;;;;28.80;51.23;100154.31;15431696;28;20058;-64
2021/06/21 07:46:21;;;;;;;1999.90;999.90;;;;;;;28.98;51.15;100169.56;15431888;28;20046;-64
2021/06/21 07:53:54;;;;;;;1999.90;999.90;;;;;;;30.26;47.71;100159.50;15442543;28;20259;-62
2021/06/21 08:01:26;;;;;;;1999.90;999.90;;;;;;;30.03;46.40;100156.00;15442353;28;20046;-64
2021/06/21 08:09:00;;;;;;;1999.90;999.90;;;;;;;29.24;47.41;100166.44;15439961;28;20046;-62
2021/06/21 08:16:32;;;;;;;1999.90;999.90;;;;;;;29.71;47.96;100180.44;15442502;28;20571;-61
2021/06/21 08:24:10;;;;;;;1999.90;999.90;;;;;;;29.90;47.61;100161.09;15443533;28;20097;-63
2021/06/21 08:31:43;;;;;;;1999.90;999.90;;;;;;;28.73;51.59;100184.88;15443081;28;20078;-63
2021/06/21 08:39:17;;;;;;;1999.90;999.90;;;;;;;30.91;47.98;100181.09;15443112;28;20504;-63
2021/06/21 08:46:51;;;;;;;1999.90;999.90;;;;;;;30.88;48.12;100191.50;15442290;28;20508;-63
2021/06/21 08:54:25;;;;;;;1999.90;999.90;;;;;;;31.52;45.63;100196.16;15443425;28;20130;-65
2021/06/21 09:01:58;;;;;;;1999.90;999.90;;;;;;;32.18;44.72;100193.06;15440878;28;20052;-62
2021/06/21 09:09:35;;;;;;;1999.90;999.90;;;;;;;32.05;45.32;100199.13;15382147;28;20528;-61
2021/06/21 09:17:08;;;;;;;1999.90;999.90;;;;;;;31.70;43.93;100209.66;15418094;28;20043;-62
2021/06/21 09:24:42;;;;;;;1999.90;999.90;;;;;;;31.48;46.78;100199.22;15434389;28;20584;-65
2021/06/21 09:32:14;;;;;;;1999.90;999.90;;;;;;;32.94;42.57;100205.81;15430936;28;20130;-65
2021/06/21 09:39:51;;;;;;;1999.90;999.90;;;;;;;31.79;45.19;100204.66;15435975;28;20049;-64
2021/06/21 09:47:28;;;;;;;1999.90;999.90;;;;;;;31.38;46.66;100208.41;15432107;28;20035;-65
2021/06/21 09:55:11;;;;;;;1999.90;999.90;;;;;;;30.75;47.88;100205.31;15410573;28;20058;-63
2021/06/21 10:02:43;;;;;;;1999.90;999.90;;;;;;;31.53;46.38;100200.63;15431161;28;20409;-62
2021/06/21 10:10:20;;;;;;;1999.90;999.90;;;;;;;32.55;43.42;100210.88;15403205;28;20115;-63
2021/06/21 10:17:53;;;;;;;1999.90;999.90;;;;;;;33.82;40.43;100213.41;15427523;28;20492;-61
2021/06/21 10:25:26;;;;;;;1999.90;999.90;;;;;;;32.90;41.98;100210.97;15407672;28;20122;-62
2021/06/21 10:33:02;;;;;;;1999.90;999.90;;;;;;;32.92;42.75;100196.00;15438350;28;20409;-64
2021/06/21 10:40:58;;;;;;;1999.90;999.90;;;;;;;33.13;43.01;100200.56;15387968;28;20043;-64
2021/06/21 10:48:31;;;;;;;1999.90;999.90;;;;;;;32.73;43.37;100199.13;15414935;28;20050;-63
2021/06/21 10:56:04;;;;;;;1999.90;999.90;;;;;;;34.61;40.29;100189.06;15408181;28;20051;-63
2021/06/21 11:03:38;;;;;;;1999.90;999.90;;;;;;;33.70;41.08;100190.63;15433514;28;20061;-63
2021/06/21 11:11:54;;;;;;;1999.90;999.90;;;;;;;34.69;39.33;100186.47;15434717;28;20134;-61
2021/06/21 11:19:35;;;;;;;1999.90;999.90;;;;;;;35.38;36.71;100183.59;15386237;28;20465;-63
2021/06/21 11:27:09;;;;;;;1999.90;999.90;;;;;;;36.00;38.28;100184.72;15433634;28;20053;-65
2021/06/21 11:34:49;;;;;;;1999.90;999.90;;;;;;;36.90;34.39;100165.34;15419621;28;20043;-63
2021/06/21 11:42:26;;;;;;;1999.90;999.90;;;;;;;34.85;38.71;100156.06;15427357;28;20046;-63
2021/06/21 11:50:09;;;;;;;1999.90;999.90;;;;;;;36.75;34.85;100147.34;15431460;28;20667;-63
2021/06/21 11:57:42;;;;;;;1999.90;999.90;;;;;;;36.02;34.13;100150.13;15425197;28;20126;-63
2021/06/21 12:05:16;;;;;;;1999.90;999.90;;;;;;;35.44;34.76;100143.84;15444924;28;20046;-63
2021/06/21 12:12:53;;;;;;;1999.90;999.90;;;;;;;37.17;32.67;100152.06;15443105;28;20129;-65
2021/06/21 12:20:28;;;;;;;1999.90;999.90;;;;;;;36.59;32.41;100146.81;15441890;28;20046;-65
2021/06/21 12:28:13;;;;;;;1999.90;999.90;;;;;;;38.22;30.31;100137.63;15442879;28;20047;-63
2021/06/21 12:36:05;;;;;;;1999.90;999.90;;;;;;;37.84;30.32;100131.50;15438577;28;20054;-64
2021/06/21 12:43:38;;;;;;;1999.90;999.90;;;;;;;40.18;29.03;100127.63;15441660;28;20059;-64
2021/06/21 12:51:12;;;;;;;1999.90;999.90;;;;;;;39.13;28.45;100139.28;15422530;28;20093;-63
2021/06/21 12:58:44;;;;;;;1999.90;999.90;;;;;;;39.98;27.93;100139.84;15438802;28;20060;-63
2021/06/21 13:06:31;;;;;;;1999.90;999.90;;;;;;;36.81;33.78;100124.88;15441390;28;20410;-64
2021/06/21 13:14:09;;;;;;;1999.90;999.90;;;;;;;35.91;32.88;100130.59;15440416;28;20094;-61
2021/06/21 13:21:47;;;;;;;1999.90;999.90;;;;;;;35.81;32.29;100126.31;15408539;28;20047;-62
2021/06/21 13:29:24;;;;;;;1999.90;999.90;;;;;;;35.54;35.40;100124.91;15385627;28;20078;-63
2021/06/21 13:36:58;;;;;;;1999.90;999.90;;;;;;;34.22;33.79;100122.06;15411359;28;20050;-62
2021/06/21 13:44:30;;;;;;;1999.90;999.90;;;;;;;34.89;33.77;100111.06;15437658;28;20125;-63
2021/06/21 13:52:08;;;;;;;1999.90;999.90;;;;;;;34.34;34.36;100120.84;15399381;28;20105;-63
2021/06/21 13:59:48;;;;;;;1999.90;999.90;;;;;;;33.93;34.86;100128.06;15424076;28;20137;-61
2021/06/21 14:07:21;;;;;;;1999.90;999.90;;;;;;;34.21;34.35;100148.63;15389966;28;20105;-61
2021/06/21 14:14:53;;;;;;;1999.90;999.90;;;;;;;34.19;34.50;100142.56;15422766;28;20038;-61
2021/06/21 14:22:27;;;;;;;1999.90;999.90;;;;;;;33.99;34.25;100138.41;15428154;28;20053;-61
2021/06/21 14:29:59;;;;;;;1999.90;999.90;;;;;;;33.85;34.09;100142.13;15446705;28;20083;-64
2021/06/21 14:37:32;;;;;;;1999.90;999.90;;;;;;;33.34;35.86;100149.34;15424266;28;20059;-64
2021/06/21 14:45:07;;;;;;;1999.90;999.90;;;;;;;33.80;32.97;100155.25;15437938;28;20055;-62
2021/06/21 14:52:43;;;;;;;1999.90;999.90;;;;;;;33.82;33.22;100161.31;15419810;28;20110;-63
2021/06/21 15:00:18;;;;;;;1999.90;999.90;;;;;;;33.13;34.02;100150.63;15445227;28;20050;-64
2021/06/21 15:07:53;;;;;;;1999.90;999.90;;;;;;;33.07;34.94;100147.66;15425775;28;20079;-64
2021/06/21 15:15:30;;;;;;;1999.90;999.90;;;;;;;32.69;35.58;100139.94;15448065;28;20047;-64
2021/06/21 15:23:05;;;;;;;1999.90;999.90;;;;;;;33.11;34.71;100128.00;15437884;28;20046;-63
2021/06/21 15:30:38;;;;;;;1999.90;999.90;;;;;;;33.15;34.10;100134.41;15440207;28;20061;-64
2021/06/21 15:38:12;;;;;;;1999.90;999.90;;;;;;;32.63;34.86;100124.63;15433545;28;20039;-65
2021/06/21 15:45:45;;;;;;;1999.90;999.90;;;;;;;32.37;34.88;100124.44;15433524;28;20111;-65
2021/06/21 15:53:18;;;;;;;1999.90;999.90;;;;;;;32.58;35.83;100134.78;15425591;28;20448;-65
2021/06/21 16:00:51;;;;;;;1999.90;999.90;;;;;;;32.44;36.19;100119.06;15429945;28;20452;-63
2021/06/21 16:08:25;;;;;;;1999.90;999.90;;;;;;;32.08;36.16;100120.22;15424324;28;20071;-67
2021/06/21 16:15:58;;;;;;;1999.90;999.90;;;;;;;32.05;36.56;100118.34;15423862;28;20146;-64
2021/06/21 16:23:31;;;;;;;1999.90;999.90;;;;;;;32.30;37.37;100122.75;15437160;28;20074;-63
2021/06/21 16:31:04;;;;;;;1999.90;999.90;;;;;;;31.92;38.55;100132.25;15424821;28;20070;-63
2021/06/21 16:38:39;;;;;;;1999.90;999.90;;;;;;;31.27;40.00;100131.16;15418007;28;20126;-62
2021/06/21 16:46:11;;;;;;;1999.90;999.90;;;;;;;31.37;40.39;100149.97;15424688;28;20042;-63
2021/06/21 16:53:44;;;;;;;1999.90;999.90;;;;;;;31.31;40.24;100157.69;15434885;28;20070;-61
2021/06/21 17:01:17;;;;;;;1999.90;999.90;;;;;;;31.30;39.21;100173.41;15427490;28;20572;-62
2021/06/21 17:08:51;;;;;;;1999.90;999.90;;;;;;;31.04;40.84;100191.09;15396330;28;20042;-64
2021/06/21 17:16:23;;;;;;;1999.90;999.90;;;;;;;30.76;40.50;100194.59;15430597;28;20113;-61
2021/06/21 17:23:57;;;;;;;1999.90;999.90;;;;;;;30.58;40.14;100198.28;15420376;28;20070;-60
2021/06/21 17:31:29;;;;;;;1999.90;999.90;;;;;;;30.46;41.54;100206.63;15425905;28;20042;-63
2021/06/21 17:39:03;;;;;;;1999.90;999.90;;;;;;;30.30;40.77;100212.72;15415149;28;20038;-63
2021/06/21 17:46:37;;;;;;;1999.90;999.90;;;;;;;30.20;40.62;100222.63;15401532;28;20047;-61
2021/06/21 17:54:10;;;;;;;1999.90;999.90;;;;;;;30.05;41.23;100228.22;15380494;28;20051;-62
2021/06/21 18:01:43;;;;;;;1999.90;999.90;;;;;;;29.99;42.78;100238.75;15417571;28;20130;-62
2021/06/21 18:09:16;;;;;;;1999.90;999.90;;;;;;;29.96;42.45;100247.56;15408285;28;20055;-62
2021/06/21 18:16:49;;;;;;;1999.90;999.90;;;;;;;29.64;42.73;100243.19;15380309;28;20173;-61
2021/06/21 18:24:22;;;;;;;1999.90;999.90;;;;;;;29.70;43.48;100262.22;15411317;28;20050;-64
2021/06/21 18:31:54;;;;;;;1999.90;999.90;;;;;;;29.13;41.54;100253.06;15380912;28;20102;-64
2021/06/21 18:39:28;;;;;;;1999.90;999.90;;;;;;;28.93;40.87;100256.31;15408871;28;20034;-63
2021/06/21 18:47:01;;;;;;;1999.90;999.90;;;;;;;28.92;42.87;100259.66;15418666;28;20489;-62
2021/06/21 18:54:35;;;;;;;1999.90;999.90;;;;;;;28.94;42.27;100262.84;15405262;28;20133;-60
2021/06/21 19:02:07;;;;;;;1999.90;999.90;;;;;;;28.69;42.20;100249.47;15380890;28;20419;-62
2021/06/21 19:09:40;;;;;;;1999.90;999.90;;;;;;;28.52;42.30;100250.94;15373695;29;20416;-63
2021/06/21 19:17:13;;;;;;;1999.90;999.90;;;;;;;28.42;41.89;100268.09;15373513;29;20051;-64
2021/06/21 19:24:46;;;;;;;1999.90;999.90;;;;;;;28.13;44.00;100274.03;15375201;28;20086;-65
2021/06/21 19:32:19;;;;;;;1999.90;999.90;;;;;;;27.59;46.43;100288.59;15374693;28;20084;-64
2021/06/21 19:39:52;;;;;;;1999.90;999.90;;;;;;;27.29;46.43;100293.66;15374207;28;20047;-66
2021/06/21 19:47:25;;;;;;;1999.90;999.90;;;;;;;27.03;47.74;100297.78;15381567;28;20464;-65
2021/06/21 19:54:58;;;;;;;;;;;;;;;26.81;47.98;100309.06;15383899;29;20047;-65
2021/06/21 20:02:30;;;;;;;1999.90;999.90;;;;;;;26.57;48.07;100313.44;15383767;28;19977;-65
2021/06/21 20:10:05;;;;;;;;;;;;;;;26.34;51.66;100300.97;15405872;28;20047;-64
2021/06/21 20:17:38;;;;;;;1999.90;999.90;;;;;;;25.98;51.54;100309.72;15428881;28;20025;-64
2021/06/21 20:25:13;;;;;;;1999.90;999.90;;;;;;;25.72;50.57;100308.75;15435067;28;20050;-62
2021/06/21 20:32:51;;;;;;;1999.90;999.90;;;;;;;25.72;52.00;100308.75;15440819;28;20051;-62
2021/06/21 20:40:25;;;;;;;1999.90;999.90;;;;;;;25.54;52.39;100303.47;15428689;28;20042;-62
2021/06/21 20:47:57;;;;;;;1999.90;999.90;;;;;;;25.35;53.25;100300.69;15429428;28;20047;-62
2021/06/21 20:55:31;;;;;;;1999.90;999.90;;;;;;;25.11;54.33;100303.66;15416074;28;20058;-62
2021/06/21 21:03:03;;;;;;;1999.90;999.90;;;;;;;24.96;55.05;100310.91;15423297;28;20381;-63
2021/06/21 21:10:39;;;;;;;1999.90;999.90;;;;;;;24.78;54.66;100317.00;15410838;28;20115;-64
2021/06/21 21:18:11;;;;;;;1999.90;999.90;;;;;;;24.75;55.12;100306.47;15412653;28;20508;-63
2021/06/21 21:25:45;;;;;;;1999.90;999.90;;;;;;;24.63;54.67;100305.09;15438156;28;20504;-61
2021/06/21 21:33:17;;;;;;;1999.90;999.90;;;;;;;24.46;54.49;100300.56;15416890;28;20050;-60
2021/06/21 21:40:51;;;;;;;1999.90;999.90;;;;;;;24.52;55.04;100300.88;15394650;28;20047;-59
2021/06/21 21:48:23;;;;;;;1999.90;999.90;;;;;;;24.46;53.56;100306.25;15403965;28;20042;-64
2021/06/21 21:55:57;;;;;;;1999.90;999.90;;;;;;;24.16;54.11;100316.56;15411010;28;20031;-63
2021/06/21 22:03:29;;;;;;;1999.90;999.90;;;;;;;24.09;56.77;100322.44;15393598;28;20103;-63
2021/06/21 22:11:03;;;;;;;1999.90;999.90;;;;;;;24.23;59.44;100326.25;15428220;28;20053;-63
2021/06/21 22:18:35;;;;;;;1999.90;999.90;;;;;;;24.22;60.91;100338.88;15419137;28;20401;-61
2021/06/21 22:26:08;;;;;;;1999.90;999.90;;;;;;;24.26;62.30;100360.38;15412606;28;20051;-61
2021/06/21 22:33:40;;;;;;;1999.90;999.90;;;;;;;24.11;64.15;100362.69;15441552;23;20448;-75
2021/06/21 22:41:16;;;;;;;1999.90;999.90;;;;;;;23.92;66.40;100368.31;15433188;28;20528;-74
2021/06/21 22:48:48;;;;;;;1999.90;999.90;;;;;;;23.78;67.61;100357.97;15434069;28;20047;-74
2021/06/21 22:56:22;;;;;;;1999.90;999.90;;;;;;;23.56;68.85;100377.44;15433692;28;20047;-74
2021/06/21 23:03:54;;;;;;;1999.90;999.90;;;;;;;23.48;68.67;100384.47;15451115;28;20466;-74
2021/06/21 23:11:28;;;;;;;1999.90;999.90;;;;;;;23.44;68.54;100401.56;15426583;28;20538;-76
2021/06/21 23:19:00;;;;;;;1999.90;999.90;;;;;;;23.29;68.51;100420.91;15394054;28;20051;-75
2021/06/21 23:26:36;;;;;;;1999.90;999.90;;;;;;;23.09;68.75;100407.75;15413424;28;20109;-74
2021/06/21 23:34:09;;;;;;;1999.90;999.90;;;;;;;23.12;67.85;100416.25;15407552;28;20415;-75
2021/06/21 23:41:43;;;;;;;1999.90;999.90;;;;;;;22.94;68.72;100427.06;15440052;28;20059;-73
2021/06/21 23:49:15;;;;;;;1999.90;999.90;;;;;;;22.86;68.70;100425.53;15399878;28;20130;-74
2021/06/21 23:56:48;;;;;;;1999.90;999.90;;;;;;;22.54;69.86;100425.84;15409694;28;20043;-75
